Time;durP1;ratioP1;P1;durP2;ratioP2;P2;SDS_P1;SDS_P2;PMS_P1;PMS_P2;Temp;Humidity;BMP_temperature;BMP_pressure;BME280_temperature;BME280_humidity;BME280_pressure;Samples;Min_cycle;Max_cycle;Signal;HPM_P1;HPM_P2
2022/01/08 19:00:14;;;;;;;40.22;37.05;;;0.00;75.60;;;;;;5069236;28;20375;-68
2022/01/08 19:02:40;;;;;;;43.72;39.85;;;0.00;77.60;;;;;;5050194;28;20375;-68
2022/01/08 19:05:08;;;;;;;59.67;51.00;;;0.10;78.90;;;;;;5060175;28;20068;-70
2022/01/08 19:07:35;;;;;;;50.85;43.10;;;0.30;79.50;;;;;;5034850;28;20087;-71
2022/01/08 19:10:01;;;;;;;43.30;39.00;;;0.50;79.60;;;;;;5045975;28;20123;-69
2022/01/08 19:12:26;;;;;;;52.88;46.17;;;0.80;79.50;;;;;;5051100;28;20052;-69
2022/01/08 19:14:52;;;;;;;35.65;32.38;;;0.90;79.30;;;;;;5056337;28;20044;-72
2022/01/08 19:17:18;;;;;;;33.60;30.75;;;1.10;79.10;;;;;;5061135;28;20024;-69
2022/01/08 19:19:44;;;;;;;29.80;27.42;;;1.30;78.90;;;;;;5061560;28;20033;-70
2022/01/08 19:22:09;;;;;;;45.25;40.95;;;1.40;78.60;;;;;;5049972;28;20114;-68
2022/01/08 19:24:38;;;;;;;47.55;41.45;;;1.50;78.40;;;;;;5057553;28;20088;-70
2022/01/08 19:27:05;;;;;;;59.92;48.78;;;1.60;78.20;;;;;;5044530;28;20029;-70
2022/01/08 19:29:31;;;;;;;47.10;42.30;;;1.80;77.80;;;;;;5044215;28;20025;-69
2022/01/08 19:31:57;;;;;;;43.38;39.05;;;1.80;77.60;;;;;;5054472;28;20025;-70
2022/01/08 19:34:24;;;;;;;43.92;39.63;;;1.90;77.40;;;;;;5048882;28;20036;-69
2022/01/08 19:36:50;;;;;;;42.22;37.90;;;1.90;77.10;;;;;;5058972;28;20451;-69
2022/01/08 19:39:16;;;;;;;51.72;44.45;;;1.90;76.70;;;;;;5062545;28;20114;-69
2022/01/08 19:41:42;;;;;;;44.20;38.30;;;1.90;76.70;;;;;;5055120;28;20793;-74
2022/01/08 19:44:08;;;;;;;36.75;33.58;;;2.00;76.60;;;;;;5066436;28;20363;-69
2022/01/08 19:46:37;;;;;;;26.67;24.77;;;2.00;76.50;;;;;;5058494;28;20041;-69
2022/01/08 19:49:04;;;;;;;24.25;21.83;;;2.00;76.30;;;;;;5059330;28;20028;-67
2022/01/08 19:51:31;;;;;;;23.77;22.17;;;2.00;76.10;;;;;;5068714;28;20040;-69
2022/01/08 19:54:19;;;;;;;24.75;22.88;;;2.00;75.90;;;;;;5067982;28;20021;-71
2022/01/08 19:56:47;;;;;;;25.15;23.15;;;2.00;75.80;;;;;;5069251;28;20040;-69
2022/01/08 19:59:16;;;;;;;22.70;21.13;;;2.00;75.60;;;;;;5069033;28;20475;-68
2022/01/08 20:01:42;;;;;;;24.02;22.00;;;2.00;75.50;;;;;;5068408;28;20021;-67
2022/01/08 20:04:10;;;;;;;23.00;21.40;;;2.00;75.40;;;;;;5068989;28;20025;-67
2022/01/08 20:06:36;;;;;;;24.48;22.80;;;2.00;75.30;;;;;;5069745;28;20025;-66
2022/01/08 20:09:03;;;;;;;22.70;21.27;;;2.00;75.20;;;;;;5069254;28;20463;-68
2022/01/08 20:11:39;;;;;;;19.80;18.45;;;2.00;75.20;;;;;;5055414;28;20035;-68
2022/01/08 20:14:05;;;;;;;23.98;21.98;;;1.90;75.20;;;;;;5027469;28;20018;-66
2022/01/08 20:16:30;;;;;;;25.30;23.38;;;2.00;75.80;;;;;;5015182;28;20026;-67
2022/01/08 20:18:56;;;;;;;27.40;25.13;;;2.00;75.10;;;;;;5018320;28;20043;-66
2022/01/08 20:21:22;;;;;;;39.25;35.35;;;2.00;75.00;;;;;;5034999;28;20017;-67
2022/01/08 20:23:48;;;;;;;29.95;27.40;;;2.10;75.00;;;;;;5035157;28;20025;-64
2022/01/08 20:26:14;;;;;;;25.67;23.52;;;2.10;75.00;;;;;;5035232;28;20021;-64
2022/01/08 20:28:41;;;;;;;21.10;19.60;;;2.00;74.90;;;;;;5035087;28;20452;-65
2022/01/08 20:31:08;;;;;;;23.73;22.00;;;2.10;74.90;;;;;;5035041;28;20048;-65
2022/01/08 20:33:35;;;;;;;21.98;20.25;;;2.10;74.80;;;;;;5020730;28;20022;-67
2022/01/08 20:36:01;;;;;;;23.67;22.17;;;2.10;74.90;;;;;;5014965;28;20059;-65
2022/01/08 20:38:26;;;;;;;22.15;20.77;;;2.20;74.90;;;;;;5014995;28;20030;-67
2022/01/08 20:40:52;;;;;;;22.75;21.00;;;2.20;75.30;;;;;;5013973;28;20262;-67
2022/01/08 20:43:18;;;;;;;25.15;23.08;;;2.30;74.70;;;;;;5029061;28;20029;-67
2022/01/08 20:45:44;;;;;;;21.08;19.50;;;2.20;74.40;;;;;;5022666;28;20096;-70
2022/01/08 20:48:11;;;;;;;24.55;21.17;;;2.20;74.30;;;;;;5024916;28;20163;-68
2022/01/08 20:50:36;;;;;;;21.38;19.95;;;2.10;74.30;;;;;;5031728;28;20017;-67
2022/01/08 20:53:04;;;;;;;21.27;19.77;;;2.10;74.30;;;;;;5036529;28;20017;-68
2022/01/08 20:55:30;;;;;;;19.88;18.35;;;2.10;74.30;;;;;;5041873;28;20017;-70
2022/01/08 20:57:57;;;;;;;22.42;20.38;;;2.10;74.00;;;;;;5033353;28;20034;-68
2022/01/08 21:00:26;;;;;;;23.08;21.20;;;2.10;73.90;;;;;;5031707;28;20027;-68
2022/01/08 21:02:53;;;;;;;24.27;22.33;;;2.00;73.90;;;;;;5045884;28;20022;-68
2022/01/08 21:05:19;;;;;;;20.95;19.40;;;2.10;73.90;;;;;;5040175;28;20028;-73
2022/01/08 21:07:45;;;;;;;18.92;17.65;;;2.10;73.90;;;;;;5033324;28;20014;-70
2022/01/08 21:10:12;;;;;;;22.55;21.42;;;2.10;73.80;;;;;;5014164;28;20486;-67
2022/01/08 21:12:39;;;;;;;22.08;20.40;;;2.00;73.50;;;;;;5040442;28;20021;-69
2022/01/08 21:15:08;;;;;;;22.67;21.17;;;2.00;73.60;;;;;;5044338;28;20024;-71
2022/01/08 21:17:34;;;;;;;21.65;19.83;;;2.00;73.40;;;;;;5044658;28;20178;-70
2022/01/08 21:20:01;;;;;;;20.90;19.40;;;2.00;73.50;;;;;;5044739;28;20108;-72
2022/01/08 21:22:27;;;;;;;24.50;22.23;;;2.00;73.50;;;;;;5041603;28;20025;-69
2022/01/08 21:24:52;;;;;;;18.90;17.48;;;2.00;73.60;;;;;;5040721;28;20027;-70
2022/01/08 21:27:18;;;;;;;19.05;17.73;;;2.00;73.50;;;;;;5041314;28;20021;-70
2022/01/08 21:29:44;;;;;;;21.13;20.02;;;2.00;73.40;;;;;;5046023;28;20017;-71
